createdAt,value
2019-02-26T00:04:43.551Z,14.17
2019-02-26T00:07:29.845Z,13.17
2019-02-26T00:10:14.324Z,12.47
2019-02-26T00:13:04.186Z,12.80
2019-02-26T00:15:48.600Z,14.13
2019-02-26T00:18:33.545Z,15.03
2019-02-26T00:24:05.058Z,11.63
2019-02-26T00:26:49.863Z,14.47
2019-02-26T00:29:36.430Z,15.00
2019-02-26T00:32:22.646Z,11.13
2019-02-26T00:35:08.905Z,13.57
2019-02-26T00:37:56.694Z,14.47
2019-02-26T00:40:43.707Z,13.47
2019-02-26T00:43:30.633Z,12.33
2019-02-26T00:46:15.208Z,12.30
2019-02-26T00:49:01.466Z,11.57
2019-02-26T00:51:48.288Z,15.07
2019-02-26T00:54:38.710Z,13.47
2019-02-26T00:57:27.155Z,16.80
2019-02-26T01:00:12.334Z,15.27
2019-02-26T01:02:57.351Z,12.60
2019-02-26T01:05:43.132Z,13.47
2019-02-26T01:08:27.755Z,15.07
2019-02-26T01:11:13.549Z,14.60
2019-02-26T01:14:00.082Z,14.77
2019-02-26T01:16:46.038Z,19.47
2019-02-26T01:19:34.041Z,16.73
2019-02-26T01:22:18.851Z,16.20
2019-02-26T01:28:27.074Z,14.20
2019-02-26T01:34:25.546Z,15.27
2019-02-26T01:37:16.161Z,14.87
2019-02-26T01:40:01.387Z,14.90
2019-02-26T01:42:51.939Z,15.37
2019-02-26T01:45:40.440Z,16.17
2019-02-26T01:58:02.289Z,12.60
2019-02-26T02:01:32.556Z,15.40
2019-02-26T02:07:24.272Z,16.80
2019-02-26T02:10:14.763Z,14.47
2019-02-26T02:13:02.438Z,15.83
2019-02-26T02:18:51.354Z,18.83
2019-02-26T02:21:41.520Z,15.37
2019-02-26T02:24:26.137Z,15.33
2019-02-26T02:27:19.575Z,16.13
2019-02-26T02:30:14.259Z,14.63
2019-02-26T02:32:57.563Z,19.03
2019-02-26T02:35:48.910Z,15.90
2019-02-26T02:38:38.584Z,14.20
2019-02-26T02:41:23.208Z,16.50
2019-02-26T02:44:07.905Z,18.67
2019-02-26T02:46:52.382Z,16.30
2019-02-26T02:49:39.928Z,21.10
2019-02-26T02:52:32.465Z,17.63
2019-02-26T02:55:22.025Z,16.10
2019-02-26T02:58:06.871Z,15.83
2019-02-26T03:00:38.541Z,15.73
2019-02-26T03:03:22.968Z,13.43
2019-02-26T03:06:13.610Z,15.00
2019-02-26T03:08:58.504Z,15.83
2019-02-26T03:11:44.538Z,16.07
2019-02-26T03:14:33.831Z,17.70
2019-02-26T03:17:43.600Z,16.33
2019-02-26T03:20:31.835Z,17.07
2019-02-26T03:23:20.933Z,16.47
2019-02-26T03:26:03.653Z,17.60
2019-02-26T03:28:53.919Z,17.97
2019-02-26T03:31:41.022Z,16.23
2019-02-26T03:34:25.814Z,15.73
2019-02-26T03:37:15.151Z,16.70
2019-02-26T03:40:02.871Z,17.30
2019-02-26T03:42:46.836Z,16.83
2019-02-26T03:45:31.456Z,15.47
2019-02-26T03:48:21.007Z,15.83
2019-02-26T03:51:10.316Z,14.13
2019-02-26T03:53:59.376Z,14.87
2019-02-26T03:56:48.927Z,18.80
2019-02-26T03:59:34.384Z,16.17
2019-02-26T04:02:20.224Z,18.17
2019-02-26T04:05:06.878Z,16.63
2019-02-26T04:07:53.258Z,19.10
2019-02-26T04:10:42.134Z,14.60
2019-02-26T04:13:33.208Z,15.33
2019-02-26T04:16:18.006Z,15.57
2019-02-26T04:19:08.975Z,15.00
2019-02-26T04:25:11.934Z,16.43
2019-02-26T04:27:57.016Z,16.90
2019-02-26T04:30:44.481Z,19.03
2019-02-26T04:33:30.335Z,17.47
2019-02-26T04:36:16.930Z,17.43
2019-02-26T04:39:03.277Z,14.90
2019-02-26T04:41:49.909Z,18.87
2019-02-26T04:44:40.125Z,18.20
2019-02-26T04:47:26.777Z,18.77
2019-02-26T04:50:11.036Z,17.77
2019-02-26T04:53:01.498Z,13.83
2019-02-26T04:55:46.690Z,17.27
2019-02-26T05:07:52.201Z,18.10
2019-02-26T05:10:36.665Z,16.30
2019-02-26T05:13:22.114Z,20.83
2019-02-26T05:16:06.559Z,15.70
2019-02-26T05:18:51.754Z,18.63
2019-02-26T05:21:24.468Z,20.40
2019-02-26T05:27:30.110Z,16.73
2019-02-26T05:30:22.143Z,18.60
2019-02-26T05:33:11.591Z,19.33
2019-02-26T05:35:56.665Z,20.23
2019-02-26T05:38:44.506Z,18.77
2019-02-26T05:41:33.377Z,25.00
2019-02-26T05:44:17.719Z,19.10
2019-02-26T05:47:01.914Z,18.20
2019-02-26T05:49:47.194Z,22.83
2019-02-26T05:52:36.736Z,21.67
2019-02-26T05:55:25.485Z,17.87
2019-02-26T05:58:21.506Z,18.07
2019-02-26T06:01:14.368Z,18.83
2019-02-26T06:04:07.675Z,18.53
2019-02-26T06:06:55.509Z,20.50
2019-02-26T06:09:42.224Z,19.27
2019-02-26T06:12:35.519Z,19.90
2019-02-26T06:15:28.850Z,22.60
2019-02-26T06:18:21.099Z,23.30
2019-02-26T06:21:07.206Z,19.97
2019-02-26T06:23:57.439Z,20.00
2019-02-26T06:26:43.127Z,20.60
2019-02-26T06:29:29.987Z,18.17
2019-02-26T06:32:15.442Z,21.73
2019-02-26T06:35:00.323Z,21.50
2019-02-26T06:37:47.303Z,18.47
2019-02-26T06:40:34.488Z,19.87
2019-02-26T06:43:17.423Z,19.87
2019-02-26T06:46:02.754Z,19.97
2019-02-26T06:48:47.132Z,19.97
2019-02-26T06:51:31.058Z,21.50
2019-02-26T06:54:15.488Z,18.23
2019-02-26T06:57:00.905Z,17.50
2019-02-26T06:59:44.912Z,24.73
2019-02-26T07:05:32.461Z,20.50
2019-02-26T07:08:18.971Z,24.23
2019-02-26T07:11:04.738Z,21.33
2019-02-26T07:13:53.730Z,20.97
2019-02-26T07:16:42.719Z,20.10
2019-02-26T07:22:31.109Z,21.97
2019-02-26T07:25:16.621Z,17.70
2019-02-26T07:28:02.932Z,16.93
2019-02-26T07:30:37.478Z,18.67
2019-02-26T07:33:27.413Z,17.30
2019-02-26T07:36:02.373Z,18.57
2019-02-26T07:38:53.947Z,20.73
2019-02-26T07:41:44.603Z,19.03
2019-02-26T07:44:39.873Z,21.97
2019-02-26T07:51:04.756Z,19.87
2019-02-26T07:53:51.023Z,19.17
2019-02-26T07:56:35.146Z,16.97
2019-02-26T07:59:27.479Z,19.80
2019-02-26T08:02:08.640Z,22.97
2019-02-26T08:04:58.540Z,17.00
2019-02-26T08:07:44.439Z,21.43
2019-02-26T08:10:28.396Z,21.63
2019-02-26T08:13:12.869Z,22.17
2019-02-26T08:19:11.081Z,19.57
2019-02-26T08:21:57.103Z,17.00
2019-02-26T08:24:48.594Z,17.87
2019-02-26T08:27:37.996Z,15.63
2019-02-26T08:30:26.142Z,16.50
2019-02-26T08:33:35.279Z,15.77
2019-02-26T08:39:30.192Z,17.83
2019-02-26T08:42:14.094Z,19.53
2019-02-26T08:44:58.406Z,17.37
2019-02-26T08:47:47.143Z,14.13
2019-02-26T08:50:33.317Z,15.13
2019-02-26T08:56:33.283Z,15.47
2019-02-26T08:59:17.616Z,19.20
2019-02-26T09:02:01.973Z,18.57
2019-02-26T09:04:51.150Z,18.50
2019-02-26T09:07:40.477Z,16.70
2019-02-26T09:10:36.274Z,18.67
2019-02-26T09:16:28.319Z,14.90
2019-02-26T09:19:13.444Z,20.03
2019-02-26T09:27:32.144Z,13.63
2019-02-26T09:30:17.802Z,14.53
2019-02-26T09:33:08.264Z,12.87
2019-02-26T09:36:01.183Z,14.90
2019-02-26T09:38:46.882Z,14.67
2019-02-26T09:41:35.540Z,12.53
2019-02-26T09:44:26.269Z,15.80
2019-02-26T09:47:12.045Z,15.13
2019-02-26T09:49:58.356Z,15.90
2019-02-26T09:52:45.278Z,16.70
2019-02-26T09:55:35.957Z,14.07
2019-02-26T09:58:25.365Z,14.90
2019-02-26T10:01:20.961Z,13.17
2019-02-26T10:04:05.930Z,17.30
2019-02-26T10:06:50.360Z,13.43
2019-02-26T10:12:24.832Z,12.43
2019-02-26T10:15:11.837Z,16.10
2019-02-26T10:18:01.932Z,16.40
2019-02-26T10:20:52.351Z,15.00
2019-02-26T10:23:39.090Z,14.80
2019-02-26T10:26:26.165Z,12.10
2019-02-26T10:29:10.121Z,15.07
2019-02-26T10:31:56.102Z,17.83
2019-02-26T10:34:43.250Z,17.10
2019-02-26T10:37:26.690Z,16.07
2019-02-26T10:40:14.342Z,16.53
2019-02-26T10:42:57.432Z,12.97
2019-02-26T10:45:44.801Z,17.20
2019-02-26T10:48:31.456Z,13.13
2019-02-26T10:51:16.744Z,15.13
2019-02-26T10:54:05.701Z,12.87
2019-02-26T11:06:18.096Z,10.93
2019-02-26T11:09:01.857Z,9.63
2019-02-26T11:11:49.526Z,11.70
2019-02-26T11:20:45.802Z,6.22
2019-02-26T11:23:31.187Z,5.55
2019-02-26T11:26:19.819Z,9.78
2019-02-26T11:29:10.048Z,8.60
2019-02-26T11:31:58.591Z,7.95
2019-02-26T11:34:47.176Z,10.03
2019-02-26T11:37:36.380Z,9.35
2019-02-26T11:40:24.793Z,11.48
2019-02-26T11:49:31.001Z,10.23
2019-02-26T11:55:32.474Z,9.25
2019-02-26T12:01:20.684Z,10.13
2019-02-26T12:04:08.510Z,11.15
2019-02-26T12:13:09.546Z,10.75
2019-02-26T12:19:08.317Z,12.65
2019-02-26T12:22:00.860Z,14.60
2019-02-26T12:24:53.052Z,11.25
2019-02-26T12:27:43.807Z,14.25
2019-02-26T12:36:29.889Z,10.72
2019-02-26T12:39:16.158Z,14.10
2019-02-26T12:42:03.637Z,13.38
2019-02-26T12:44:57.238Z,17.52
2019-02-26T12:48:15.664Z,16.82
2019-02-26T12:50:52.233Z,13.35
2019-02-26T12:53:49.115Z,13.32
2019-02-26T12:56:37.470Z,14.45
2019-02-26T12:59:21.147Z,15.08
2019-02-26T13:04:21.424Z,15.68
2019-02-26T13:07:31.022Z,17.92
2019-02-26T13:10:05.404Z,14.23
2019-02-26T13:12:38.253Z,12.75
2019-02-26T13:18:26.991Z,11.93
2019-02-26T13:24:17.910Z,12.30
2019-02-26T13:27:00.378Z,14.78
2019-02-26T13:51:43.982Z,15.35
2019-02-26T13:54:27.885Z,15.00
2019-02-26T13:57:15.610Z,14.68
2019-02-26T14:03:11.278Z,13.40
2019-02-26T14:09:05.206Z,12.90
2019-02-26T14:21:06.709Z,16.23
2019-02-26T14:36:14.435Z,16.40
2019-02-26T14:45:24.593Z,15.32
2019-02-26T14:48:10.574Z,15.28
2019-02-26T14:53:57.469Z,14.78
2019-02-26T14:56:45.173Z,15.85
2019-02-26T15:02:40.587Z,12.58
2019-02-26T15:05:27.048Z,13.05
2019-02-26T15:08:10.730Z,13.68
2019-02-26T15:10:54.818Z,11.65
2019-02-26T15:13:39.041Z,13.50
2019-02-26T15:16:28.529Z,9.58
2019-02-26T15:19:11.526Z,9.13
2019-02-26T15:21:57.772Z,11.28
2019-02-26T15:24:40.793Z,12.00
2019-02-26T15:27:35.767Z,11.83
2019-02-26T15:33:11.702Z,11.03
2019-02-26T15:35:57.167Z,13.53
2019-02-26T15:38:47.632Z,12.10
2019-02-26T15:41:31.104Z,13.00
2019-02-26T15:44:16.061Z,17.42
2019-02-26T15:50:06.736Z,11.63
2019-02-26T15:52:54.351Z,8.80
2019-02-26T15:55:43.046Z,10.75
2019-02-26T15:58:27.850Z,8.48
2019-02-26T16:01:15.790Z,10.55
2019-02-26T16:03:48.761Z,7.50
2019-02-26T16:06:37.333Z,7.53
2019-02-26T16:09:26.099Z,11.87
2019-02-26T16:12:15.575Z,10.20
2019-02-26T16:15:07.910Z,8.37
2019-02-26T16:17:58.963Z,7.53
2019-02-26T16:20:49.730Z,9.00
2019-02-26T16:23:38.823Z,8.93
2019-02-26T16:26:45.859Z,11.33
2019-02-26T16:29:31.808Z,7.47
2019-02-26T16:35:17.505Z,8.67
2019-02-26T16:38:07.961Z,6.67
2019-02-26T16:44:02.120Z,9.37
2019-02-26T16:47:17.673Z,8.23
2019-02-26T16:49:44.459Z,10.30
2019-02-26T16:55:36.957Z,10.03
2019-02-26T16:58:26.682Z,9.63
2019-02-26T17:01:12.550Z,8.87
2019-02-26T17:03:57.728Z,13.37
2019-02-26T17:06:42.935Z,13.87
2019-02-26T17:09:29.540Z,9.83
2019-02-26T17:12:15.247Z,9.97
2019-02-26T17:15:02.011Z,12.13
2019-02-26T17:20:47.829Z,15.90
2019-02-26T17:23:36.316Z,8.17
2019-02-26T17:26:24.249Z,12.00
2019-02-26T17:32:17.284Z,10.20
2019-02-26T17:35:07.798Z,11.50
2019-02-26T17:37:54.340Z,13.53
2019-02-26T17:40:59.092Z,15.00
2019-02-26T17:43:43.173Z,13.27
2019-02-26T17:46:30.287Z,7.00
2019-02-26T17:49:20.207Z,8.97
2019-02-26T17:52:08.030Z,8.33
2019-02-26T17:57:58.103Z,10.63
2019-02-26T18:03:50.582Z,7.33
2019-02-26T18:06:37.912Z,8.60
2019-02-26T18:12:26.337Z,7.87
2019-02-26T18:15:00.976Z,7.43
2019-02-26T18:17:43.446Z,11.27
2019-02-26T18:23:38.665Z,7.63
2019-02-26T18:26:18.434Z,9.03
2019-02-26T18:29:06.233Z,7.83
2019-02-26T18:31:56.737Z,11.27
2019-02-26T18:34:47.267Z,9.57
2019-02-26T18:37:33.578Z,12.97
2019-02-26T18:40:19.432Z,9.07
2019-02-26T18:43:04.626Z,7.43
2019-02-26T18:48:40.981Z,9.37
2019-02-26T18:51:28.203Z,5.53
2019-02-26T18:54:13.683Z,7.63
2019-02-26T18:56:57.858Z,7.20
2019-02-26T18:59:45.764Z,8.53
2019-02-26T19:02:24.986Z,8.23
2019-02-26T19:08:16.711Z,8.73
2019-02-26T19:11:16.769Z,12.67
2019-02-26T19:17:06.227Z,8.03
2019-02-26T19:20:17.400Z,5.03
2019-02-26T19:23:02.178Z,6.50
2019-02-26T19:25:48.116Z,7.80
2019-02-26T19:31:36.375Z,7.80
2019-02-26T19:34:21.127Z,8.57
2019-02-26T19:40:00.812Z,9.07
2019-02-26T19:42:53.448Z,11.00
2019-02-26T19:45:44.934Z,6.50
2019-02-26T19:48:32.209Z,6.07
2019-02-26T19:51:16.710Z,8.87
2019-02-26T19:54:01.260Z,7.87
2019-02-26T19:56:47.250Z,7.73
2019-02-26T19:59:31.286Z,8.97
2019-02-26T20:02:16.434Z,7.07
2019-02-26T20:05:04.647Z,7.20
2019-02-26T20:07:53.231Z,8.37
2019-02-26T20:14:11.644Z,10.90
2019-02-26T20:16:54.000Z,8.60
2019-02-26T20:19:57.403Z,9.13
2019-02-26T20:22:47.293Z,8.83
2019-02-26T20:25:31.081Z,8.97
2019-02-26T20:28:15.673Z,9.57
2019-02-26T20:31:05.766Z,9.13
2019-02-26T20:33:39.350Z,11.17
2019-02-26T20:36:29.157Z,7.60
2019-02-26T20:39:17.012Z,8.77
2019-02-26T20:42:04.217Z,7.47
2019-02-26T20:44:58.798Z,9.17
2019-02-26T20:47:51.566Z,7.63
2019-02-26T20:50:35.509Z,9.00
2019-02-26T20:53:20.443Z,10.60
2019-02-26T20:56:05.321Z,12.07
2019-02-26T20:58:50.860Z,9.27
2019-02-26T21:01:40.080Z,9.07
2019-02-26T21:04:47.850Z,11.90
2019-02-26T21:10:33.450Z,14.23
2019-02-26T21:13:12.866Z,11.97
2019-02-26T21:15:58.045Z,11.40
2019-02-26T21:18:43.941Z,8.63
2019-02-26T21:21:31.367Z,10.13
2019-02-26T21:24:21.581Z,13.53
2019-02-26T21:33:33.067Z,12.03
2019-02-26T21:36:22.761Z,10.20
2019-02-26T21:39:01.841Z,12.07
2019-02-26T21:41:47.963Z,10.27
2019-02-26T21:44:37.069Z,13.63
2019-02-26T21:47:22.644Z,10.03
2019-02-26T21:50:13.279Z,10.17
2019-02-26T21:56:15.800Z,11.70
2019-02-26T22:01:59.195Z,12.90
2019-02-26T22:04:44.343Z,12.37
2019-02-26T22:07:27.928Z,14.33
2019-02-26T22:10:16.187Z,14.73
2019-02-26T22:13:04.943Z,13.40
2019-02-26T22:15:53.375Z,15.70
2019-02-26T22:18:42.957Z,16.80
2019-02-26T22:21:28.210Z,12.47
2019-02-26T22:24:14.966Z,12.37
2019-02-26T22:27:00.113Z,14.60
2019-02-26T22:29:47.962Z,12.57
2019-02-26T22:32:38.847Z,12.47
2019-02-26T22:35:29.407Z,12.50
2019-02-26T22:38:15.506Z,18.60
2019-02-26T22:44:03.250Z,12.60
2019-02-26T22:46:49.660Z,12.23
2019-02-26T22:49:53.856Z,13.87
2019-02-26T22:52:35.568Z,11.37
2019-02-26T22:55:19.477Z,13.03
2019-02-26T22:58:05.435Z,21.80
2019-02-26T23:00:54.408Z,18.83
2019-02-26T23:03:45.887Z,17.63
2019-02-26T23:06:42.257Z,20.60
2019-02-26T23:09:30.415Z,15.83
2019-02-26T23:12:16.160Z,13.97
2019-02-26T23:15:00.958Z,14.93
2019-02-26T23:17:34.231Z,14.57
2019-02-26T23:20:21.034Z,13.43
2019-02-26T23:23:09.378Z,18.80
2019-02-26T23:25:55.296Z,11.37
2019-02-26T23:28:44.003Z,14.60
2019-02-26T23:31:33.374Z,17.23
2019-02-26T23:34:24.701Z,13.00
2019-02-26T23:37:09.847Z,19.67
2019-02-26T23:39:54.228Z,17.20
2019-02-26T23:42:40.755Z,19.13
2019-02-26T23:51:39.976Z,16.13
2019-02-26T23:54:24.550Z,16.27
2019-02-26T23:57:08.559Z,15.57
2019-02-26T23:59:54.074Z,16.27
